Kamiiso, Japan
Current Conditions -  °F | °C
As of 11:00 AM on Tuesday 21 Oct 2014 (Local Time) from RJCH Reporting Station
Broken Clouds Broken Clouds  
Wind Chill: 63°   Ceiling: Unl
Heat Index: 63°   Visibility: 6mi
Dew Point: 52°   Wind: 1mph
Humidity: 68%   Direction: NA
Pressure: 29.97"   Gusts: NA
Location:  41.83°N, 140.67°E
Report Text: RJCH 210200Z VRB01KT 9999 FEW015 SCT150 BKN/// 17/11 Q1015
Loading
Personal Weather Stations






























Interactive Weather Map
Tropical Storm Tracking
New forecast layout! Learn more

10-Day Weather Forecast

Advertisements
Track Severe Weather on mobile